Dirección General De Aeronáutica Civil

Dirección Meteorológica de Chile - Servicios Climáticos

Informe General de Control de Calidad de la Estación

Listado de niveles de control de calidad para algunos parámetros
Estación Escuela Mirasol, Puerto Montt (410027)
Fecha de Revisión de los datos :

Elementos

Registros Niveles de Control Total
Nivel 0 Nivel 1 Nivel 2 Nivel 3 Errores Porcentaje
01 Temperatura del Aire Seco 48.082 0 . 0 . 0 . 0 . 0 0.00 %
02 Temperatura de Rocío 50.089 0 . 0 . 0 . 0 . 0 0.00 %
03 Humedad Relativa del Aire 48.148 0 . 0 . 0 . 0 . 0 0.00 %
04 Temperatura Máxima PM 2.009 0 . 0 . 137 6.82 % 0 . 137 6.82 %
05 Temperatura Mínima AM 2.006 0 . 0 . 100 4.99 % 0 . 100 4.99 %
06 Viento a 10 m. de Altura 50.143 0 . 0 . 0 . 0 . 0 0.00 %
07 Agua Caida, Acumulada 6 Horas 8.339 0 . 0 . 0 . 0 . 0 0.00 %
08 Presión Atm. a Nivel de Estación (QFE) 47.198 0 . 0 . 0 . 0 . 0 0.00 %
09 Presión Atm. a Nivel Medio del Mar (QFF) 47.181 0 . 0 . 0 . 0 . 0 0.00 %
10 Presión Atm. Estándar OACI (QNH) 47.180 0 . 0 . 0 . 0 . 0 0.00 %

Totales

350.375 . 0.0000 % . 0.0000 % . 0.0676 % . 0.0000 % 237 0.0676 %

Detalle de Errores Encontrados

Nivel Fecha del Dato Descripción Información Error Fecha Ingreso
2 2021-12-02 00:00:00 Temperatura 15.2 del 01-12-2021 20:00, Mayor que la Máxima 10.6 02-12-2021 00:00 15.2 -- 10.6 2021-12-02 00:20:00
2 2021-12-03 00:00:00 Temperatura 14.8 del 02-12-2021 18:00, Mayor que la Máxima 11.5 03-12-2021 00:00 14.8 -- 11.5 2021-12-03 00:20:00
2 2021-12-04 00:00:00 Temperatura 15.8 del 03-12-2021 18:00, Mayor que la Máxima 12.6 04-12-2021 00:00 15.8 -- 12.6 2021-12-04 00:20:00
2 2021-12-05 00:00:00 Temperatura 16.5 del 04-12-2021 19:00, Mayor que la Máxima 13.4 05-12-2021 00:00 16.5 -- 13.4 2021-12-05 00:20:00
2 2022-01-24 00:00:00 Temperatura 26.0 del 23-01-2022 18:00, Mayor que la Máxima 14.2 24-01-2022 00:00 26.0 -- 14.2 2022-01-24 00:20:00
2 2022-01-29 00:00:00 Temperatura 21.4 del 28-01-2022 21:00, Mayor que la Máxima 18.6 29-01-2022 00:00 21.4 -- 18.6 2022-01-29 00:20:00
2 2022-01-31 00:00:00 Temperatura 18.0 del 30-01-2022 18:00, Mayor que la Máxima 14.0 31-01-2022 00:00 18.0 -- 14.0 2022-01-31 00:20:00
2 2022-02-01 00:00:00 Temperatura 18.1 del 31-01-2022 20:00, Mayor que la Máxima 15.3 01-02-2022 00:00 18.1 -- 15.3 2022-02-01 00:20:00
2 2022-02-02 00:00:00 Temperatura 20.1 del 01-02-2022 17:00, Mayor que la Máxima 15.2 02-02-2022 00:00 20.1 -- 15.2 2022-02-02 00:31:00
2 2022-02-03 00:00:00 Temperatura 25.2 del 02-02-2022 19:00, Mayor que la Máxima 17.9 03-02-2022 00:00 25.2 -- 17.9 2022-02-03 00:20:00
2 2022-02-04 00:00:00 Temperatura 21.2 del 03-02-2022 20:00, Mayor que la Máxima 17.0 04-02-2022 00:00 21.2 -- 17.0 2022-02-04 00:20:00
2 2022-02-05 00:00:00 Temperatura 19.7 del 04-02-2022 19:00, Mayor que la Máxima 15.8 05-02-2022 00:00 19.7 -- 15.8 2022-02-05 00:36:00
2 2022-02-06 00:00:00 Temperatura 18.2 del 05-02-2022 21:00, Mayor que la Máxima 15.8 06-02-2022 00:00 18.2 -- 15.8 2022-02-06 00:36:00
2 2022-02-07 00:00:00 Temperatura 19.9 del 06-02-2022 21:00, Mayor que la Máxima 16.7 07-02-2022 00:00 19.9 -- 16.7 2022-02-07 00:36:00
2 2022-02-08 00:00:00 Temperatura 21.4 del 07-02-2022 22:00, Mayor que la Máxima 17.9 08-02-2022 00:00 21.4 -- 17.9 2022-02-08 00:38:00
2 2022-02-09 00:00:00 Temperatura 19.9 del 08-02-2022 20:00, Mayor que la Máxima 15.6 09-02-2022 00:00 19.9 -- 15.6 2022-02-09 00:36:00
2 2022-02-10 00:00:00 Temperatura 20.2 del 09-02-2022 19:00, Mayor que la Máxima 15.4 10-02-2022 00:00 20.2 -- 15.4 2022-02-10 00:36:00
2 2022-02-11 00:00:00 Temperatura 18.0 del 10-02-2022 20:00, Mayor que la Máxima 14.5 11-02-2022 00:00 18.0 -- 14.5 2022-02-11 00:36:00
2 2022-02-12 00:00:00 Temperatura 17.8 del 11-02-2022 18:00, Mayor que la Máxima 14.6 12-02-2022 00:00 17.8 -- 14.6 2022-02-12 00:36:00
2 2022-02-13 00:00:00 Temperatura 19.8 del 12-02-2022 17:00, Mayor que la Máxima 15.8 13-02-2022 00:00 19.8 -- 15.8 2022-02-13 00:36:00
2 2022-02-14 00:00:00 Temperatura 20.5 del 13-02-2022 21:00, Mayor que la Máxima 17.8 14-02-2022 00:00 20.5 -- 17.8 2022-02-14 00:36:00
2 2022-02-15 00:00:00 Temperatura 20.5 del 14-02-2022 17:00, Mayor que la Máxima 16.3 15-02-2022 00:00 20.5 -- 16.3 2022-02-15 00:36:00
2 2022-02-16 00:00:00 Temperatura 23.0 del 15-02-2022 18:00, Mayor que la Máxima 17.2 16-02-2022 00:00 23.0 -- 17.2 2022-02-16 00:36:00
2 2022-02-17 00:00:00 Temperatura 19.3 del 16-02-2022 18:00, Mayor que la Máxima 14.6 17-02-2022 00:00 19.3 -- 14.6 2022-02-17 00:36:00
2 2022-02-18 00:00:00 Temperatura 17.7 del 17-02-2022 19:00, Mayor que la Máxima 15.3 18-02-2022 00:00 17.7 -- 15.3 2022-02-18 00:36:00
2 2022-02-19 00:00:00 Temperatura 19.5 del 18-02-2022 19:00, Mayor que la Máxima 13.2 19-02-2022 00:00 19.5 -- 13.2 2022-02-19 00:36:00
2 2022-02-20 00:00:00 Temperatura 19.5 del 19-02-2022 15:00, Mayor que la Máxima 16.1 20-02-2022 00:00 19.5 -- 16.1 2022-02-20 00:36:00
2 2022-02-21 00:00:00 Temperatura 16.6 del 20-02-2022 16:00, Mayor que la Máxima 15.8 21-02-2022 00:00 16.6 -- 15.8 2022-02-21 00:36:00
2 2022-02-22 00:00:00 Temperatura 23.3 del 21-02-2022 21:00, Mayor que la Máxima 20.2 22-02-2022 00:00 23.3 -- 20.2 2022-02-22 00:36:00
2 2022-02-23 00:00:00 Temperatura 26.4 del 22-02-2022 18:00, Mayor que la Máxima 19.7 23-02-2022 00:00 26.4 -- 19.7 2022-02-23 00:36:00
2 2022-02-24 00:00:00 Temperatura 22.1 del 23-02-2022 15:00, Mayor que la Máxima 15.4 24-02-2022 00:00 22.1 -- 15.4 2022-02-24 00:36:00
2 2022-02-25 00:00:00 Temperatura 19.9 del 24-02-2022 19:00, Mayor que la Máxima 16.7 25-02-2022 00:00 19.9 -- 16.7 2022-02-25 00:36:00
2 2022-02-26 00:00:00 Temperatura 19.6 del 25-02-2022 19:00, Mayor que la Máxima 14.9 26-02-2022 00:00 19.6 -- 14.9 2022-02-26 00:36:00
2 2022-02-27 00:00:00 Temperatura 21.4 del 26-02-2022 19:00, Mayor que la Máxima 15.9 27-02-2022 00:00 21.4 -- 15.9 2022-02-27 00:37:00
2 2022-02-28 00:00:00 Temperatura 17.4 del 27-02-2022 17:00, Mayor que la Máxima 12.6 28-02-2022 00:00 17.4 -- 12.6 2022-02-28 00:37:00
2 2022-03-01 00:00:00 Temperatura 17.6 del 28-02-2022 21:00, Mayor que la Máxima 14.6 01-03-2022 00:00 17.6 -- 14.6 2022-03-01 00:37:00
2 2022-03-02 00:00:00 Temperatura 19.2 del 01-03-2022 19:00, Mayor que la Máxima 15.5 02-03-2022 00:00 19.2 -- 15.5 2022-03-02 00:42:00
2 2022-03-03 00:00:00 Temperatura 20.6 del 02-03-2022 20:00, Mayor que la Máxima 16.9 03-03-2022 00:00 20.6 -- 16.9 2022-03-03 00:37:00
2 2022-03-04 00:00:00 Temperatura 19.5 del 03-03-2022 15:00, Mayor que la Máxima 12.2 04-03-2022 00:00 19.5 -- 12.2 2022-03-04 00:37:00
2 2022-03-05 00:00:00 Temperatura 15.7 del 04-03-2022 15:00, Mayor que la Máxima 13.1 05-03-2022 00:00 15.7 -- 13.1 2022-03-05 00:44:00
2 2022-03-06 00:00:00 Temperatura 17.5 del 05-03-2022 16:00, Mayor que la Máxima 13.8 06-03-2022 00:00 17.5 -- 13.8 2022-03-06 00:36:00
2 2022-03-07 00:00:00 Temperatura 16.0 del 06-03-2022 19:00, Mayor que la Máxima 13.9 07-03-2022 00:00 16.0 -- 13.9 2022-03-07 00:09:00
2 2022-03-08 00:00:00 Temperatura 17.7 del 07-03-2022 19:00, Mayor que la Máxima 15.0 08-03-2022 00:00 17.7 -- 15.0 2022-03-08 00:09:00
2 2022-03-09 00:00:00 Temperatura 15.7 del 08-03-2022 20:00, Mayor que la Máxima 12.1 09-03-2022 00:00 15.7 -- 12.1 2022-03-09 00:09:00
2 2022-03-10 00:00:00 Temperatura 15.9 del 09-03-2022 15:00, Mayor que la Máxima 12.8 10-03-2022 00:00 15.9 -- 12.8 2022-03-10 00:09:00
2 2022-03-11 00:00:00 Temperatura 17.2 del 10-03-2022 16:00, Mayor que la Máxima 13.0 11-03-2022 00:00 17.2 -- 13.0 2022-03-11 00:09:00
2 2022-03-12 00:00:00 Temperatura 14.3 del 11-03-2022 21:00, Mayor que la Máxima 13.0 12-03-2022 00:00 14.3 -- 13.0 2022-03-12 00:09:00
2 2022-03-13 00:00:00 Temperatura 16.0 del 12-03-2022 20:00, Mayor que la Máxima 13.6 13-03-2022 00:00 16.0 -- 13.6 2022-03-13 00:10:00
2 2022-03-14 00:00:00 Temperatura 15.8 del 13-03-2022 19:00, Mayor que la Máxima 12.8 14-03-2022 00:00 15.8 -- 12.8 2022-03-14 00:09:00
2 2022-03-15 00:00:00 Temperatura 17.8 del 14-03-2022 18:00, Mayor que la Máxima 14.8 15-03-2022 00:00 17.8 -- 14.8 2022-03-15 00:09:00
2 2022-03-16 00:00:00 Temperatura 17.6 del 15-03-2022 17:00, Mayor que la Máxima 12.9 16-03-2022 00:00 17.6 -- 12.9 2022-03-16 00:36:00
2 2022-03-17 00:00:00 Temperatura 18.8 del 16-03-2022 15:00, Mayor que la Máxima 12.6 17-03-2022 00:00 18.8 -- 12.6 2022-03-17 00:09:00
2 2022-03-18 00:00:00 Temperatura 14.5 del 17-03-2022 20:00, Mayor que la Máxima 11.1 18-03-2022 00:00 14.5 -- 11.1 2022-03-18 00:09:00
2 2022-03-19 00:00:00 Temperatura 14.0 del 18-03-2022 17:00, Mayor que la Máxima 10.2 19-03-2022 00:00 14.0 -- 10.2 2022-03-19 00:09:00
2 2022-03-20 00:00:00 Temperatura 16.9 del 19-03-2022 15:00, Mayor que la Máxima 14.0 20-03-2022 00:00 16.9 -- 14.0 2022-03-20 00:09:00
2 2022-03-21 00:00:00 Temperatura 18.3 del 20-03-2022 16:00, Mayor que la Máxima 14.3 21-03-2022 00:00 18.3 -- 14.3 2022-03-21 00:09:00
2 2022-03-22 00:00:00 Temperatura 17.6 del 21-03-2022 16:00, Mayor que la Máxima 10.9 22-03-2022 00:00 17.6 -- 10.9 2022-03-22 00:36:00
2 2022-03-23 00:00:00 Temperatura 16.6 del 22-03-2022 20:00, Mayor que la Máxima 14.4 23-03-2022 00:00 16.6 -- 14.4 2022-03-23 00:36:00
2 2022-03-24 00:00:00 Temperatura 14.1 del 23-03-2022 17:00, Mayor que la Máxima 10.6 24-03-2022 00:00 14.1 -- 10.6 2022-03-24 00:36:00
2 2022-03-25 00:00:00 Temperatura 15.8 del 24-03-2022 19:00, Mayor que la Máxima 13.2 25-03-2022 00:00 15.8 -- 13.2 2022-03-25 00:36:00
2 2022-03-26 00:00:00 Temperatura 15.4 del 25-03-2022 18:00, Mayor que la Máxima 11.6 26-03-2022 00:00 15.4 -- 11.6 2022-03-26 00:36:00
2 2022-03-27 00:00:00 Temperatura 15.8 del 26-03-2022 20:00, Mayor que la Máxima 11.8 27-03-2022 00:00 15.8 -- 11.8 2022-03-27 00:36:00
2 2022-03-28 00:00:00 Temperatura 17.9 del 27-03-2022 19:00, Mayor que la Máxima 12.5 28-03-2022 00:00 17.9 -- 12.5 2022-03-28 00:09:00
2 2022-03-29 00:00:00 Temperatura 14.9 del 28-03-2022 18:00, Mayor que la Máxima 10.4 29-03-2022 00:00 14.9 -- 10.4 2022-03-29 00:36:00
2 2022-03-30 00:00:00 Temperatura 13.6 del 29-03-2022 18:00, Mayor que la Máxima 10.4 30-03-2022 00:00 13.6 -- 10.4 2022-03-30 00:36:00
2 2022-03-31 00:00:00 Temperatura 13.9 del 30-03-2022 19:00, Mayor que la Máxima 10.3 31-03-2022 00:00 13.9 -- 10.3 2022-03-31 00:36:00
2 2022-04-01 00:00:00 Temperatura 14.2 del 31-03-2022 17:00, Mayor que la Máxima 11.4 01-04-2022 00:00 14.2 -- 11.4 2022-04-01 00:09:00
2 2022-04-02 00:00:00 Temperatura 16.5 del 01-04-2022 16:00, Mayor que la Máxima 13.4 02-04-2022 00:00 16.5 -- 13.4 2022-04-02 00:36:00
2 2022-04-03 00:00:00 Temperatura 13.9 del 02-04-2022 16:00, Mayor que la Máxima 9.2 03-04-2022 00:00 13.9 -- 9.2 2022-04-03 00:21:00
2 2022-04-04 00:00:00 Temperatura 13.4 del 03-04-2022 15:00, Mayor que la Máxima 11.3 04-04-2022 00:00 13.4 -- 11.3 2022-04-04 00:36:00
2 2022-04-05 00:00:00 Temperatura 13.8 del 04-04-2022 15:00, Mayor que la Máxima 12.3 05-04-2022 00:00 13.8 -- 12.3 2022-04-05 00:09:00
2 2022-04-13 00:00:00 Temperatura 12.3 del 12-04-2022 17:00, Mayor que la Máxima 10.3 13-04-2022 00:00 12.3 -- 10.3 2022-04-13 02:09:00
2 2022-04-14 00:00:00 Temperatura 14.1 del 13-04-2022 19:00, Mayor que la Máxima 10.9 14-04-2022 00:00 14.1 -- 10.9 2022-04-14 00:09:00
2 2022-04-15 00:00:00 Temperatura 13.9 del 14-04-2022 17:00, Mayor que la Máxima 9.9 15-04-2022 00:00 13.9 -- 9.9 2022-04-15 00:09:00
2 2022-04-16 00:00:00 Temperatura 13.6 del 15-04-2022 20:00, Mayor que la Máxima 11.4 16-04-2022 00:00 13.6 -- 11.4 2022-04-16 00:09:00
2 2022-04-17 00:00:00 Temperatura 14.9 del 16-04-2022 18:00, Mayor que la Máxima 10.9 17-04-2022 00:00 14.9 -- 10.9 2022-04-17 00:09:00
2 2022-04-18 00:00:00 Temperatura 15.4 del 17-04-2022 19:00, Mayor que la Máxima 13.1 18-04-2022 00:00 15.4 -- 13.1 2022-04-18 00:09:00
2 2022-04-19 00:00:00 Temperatura 15.8 del 18-04-2022 17:00, Mayor que la Máxima 11.8 19-04-2022 00:00 15.8 -- 11.8 2022-04-19 00:09:00
2 2022-04-20 00:00:00 Temperatura 12.4 del 19-04-2022 19:00, Mayor que la Máxima 10.5 20-04-2022 00:00 12.4 -- 10.5 2022-04-20 00:09:00
2 2022-04-24 00:00:00 Temperatura 12.1 del 23-04-2022 19:00, Mayor que la Máxima 10.4 24-04-2022 00:00 12.1 -- 10.4 2022-04-24 00:36:00
2 2022-04-25 00:00:00 Temperatura 11.9 del 24-04-2022 13:00, Mayor que la Máxima 6.9 25-04-2022 00:00 11.9 -- 6.9 2022-04-25 00:21:00
2 2022-04-26 00:00:00 Temperatura 10.0 del 25-04-2022 21:00, Mayor que la Máxima 9.4 26-04-2022 00:00 10.0 -- 9.4 2022-04-26 00:09:00
2 2022-04-27 00:00:00 Temperatura 9.9 del 26-04-2022 18:00, Mayor que la Máxima 6.1 27-04-2022 00:00 9.9 -- 6.1 2022-04-27 07:09:00
2 2022-04-28 00:00:00 Temperatura 10.3 del 27-04-2022 16:00, Mayor que la Máxima 6.7 28-04-2022 00:00 10.3 -- 6.7 2022-04-28 00:09:00
2 2022-04-29 00:00:00 Temperatura 11.5 del 28-04-2022 16:00, Mayor que la Máxima 6.7 29-04-2022 00:00 11.5 -- 6.7 2022-04-29 00:09:00
2 2022-04-30 00:00:00 Temperatura 10.1 del 29-04-2022 17:00, Mayor que la Máxima 6.9 30-04-2022 00:00 10.1 -- 6.9 2022-04-30 00:09:00
2 2022-05-01 00:00:00 Temperatura 13.0 del 30-04-2022 16:00, Mayor que la Máxima 9.0 01-05-2022 00:00 13.0 -- 9.0 2022-05-01 00:09:00
2 2022-05-02 00:00:00 Temperatura 12.9 del 01-05-2022 19:00, Mayor que la Máxima 11.2 02-05-2022 00:00 12.9 -- 11.2 2022-05-02 00:09:00
2 2022-05-03 00:00:00 Temperatura 12.3 del 02-05-2022 18:00, Mayor que la Máxima 9.8 03-05-2022 00:00 12.3 -- 9.8 2022-05-03 00:09:00
2 2022-05-04 00:00:00 Temperatura 14.0 del 03-05-2022 19:00, Mayor que la Máxima 10.4 04-05-2022 00:00 14.0 -- 10.4 2022-05-04 00:36:00
2 2022-05-05 00:00:00 Temperatura 15.7 del 04-05-2022 18:00, Mayor que la Máxima 14.4 05-05-2022 00:00 15.7 -- 14.4 2022-05-05 00:09:00
2 2022-05-06 00:00:00 Temperatura 14.5 del 05-05-2022 17:00, Mayor que la Máxima 13.7 06-05-2022 00:00 14.5 -- 13.7 2022-05-06 00:35:00
2 2022-05-07 00:00:00 Temperatura 17.5 del 06-05-2022 18:00, Mayor que la Máxima 11.4 07-05-2022 00:00 17.5 -- 11.4 2022-05-07 00:09:00
2 2022-05-08 00:00:00 Temperatura 16.1 del 07-05-2022 21:00, Mayor que la Máxima 15.8 08-05-2022 00:00 16.1 -- 15.8 2022-05-08 00:09:00
2 2022-05-13 00:00:00 Temperatura 12.2 del 12-05-2022 15:00, Mayor que la Máxima 6.7 13-05-2022 00:00 12.2 -- 6.7 2022-05-13 00:09:00
2 2022-05-14 00:00:00 Temperatura 10.1 del 13-05-2022 17:00, Mayor que la Máxima 9.1 14-05-2022 00:00 10.1 -- 9.1 2022-05-14 00:09:00
2 2022-05-15 00:00:00 Temperatura 11.2 del 14-05-2022 14:00, Mayor que la Máxima 9.5 15-05-2022 00:00 11.2 -- 9.5 2022-05-15 00:09:00
2 2022-05-16 00:00:00 Temperatura 14.3 del 15-05-2022 19:00, Mayor que la Máxima 9.1 16-05-2022 00:00 14.3 -- 9.1 2022-05-16 00:09:00
2 2022-05-17 00:00:00 Temperatura 16.8 del 16-05-2022 16:00, Mayor que la Máxima 9.8 17-05-2022 00:00 16.8 -- 9.8 2022-05-17 00:09:00
2 2022-05-18 00:00:00 Temperatura 13.7 del 17-05-2022 18:00, Mayor que la Máxima 9.7 18-05-2022 00:00 13.7 -- 9.7 2022-05-18 00:09:00
2 2022-05-19 00:00:00 Temperatura 14.4 del 18-05-2022 19:00, Mayor que la Máxima 9.0 19-05-2022 00:00 14.4 -- 9.0 2022-05-19 00:09:00
2 2022-05-20 00:00:00 Temperatura 16.2 del 19-05-2022 23:00, Mayor que la Máxima 15.6 20-05-2022 00:00 16.2 -- 15.6 2022-05-20 00:09:00
2 2022-05-21 00:00:00 Temperatura 13.6 del 20-05-2022 19:00, Mayor que la Máxima 11.3 21-05-2022 00:00 13.6 -- 11.3 2022-05-21 00:21:00
2 2022-05-22 00:00:00 Temperatura 12.8 del 21-05-2022 19:00, Mayor que la Máxima 12.1 22-05-2022 00:00 12.8 -- 12.1 2022-05-22 00:36:00
2 2022-05-23 00:00:00 Temperatura 10.2 del 22-05-2022 16:00, Mayor que la Máxima 6.5 23-05-2022 00:00 10.2 -- 6.5 2022-05-23 00:36:00
2 2022-05-24 00:00:00 Temperatura 10.5 del 23-05-2022 18:00, Mayor que la Máxima 6.8 24-05-2022 00:00 10.5 -- 6.8 2022-05-24 00:09:00
2 2022-05-25 00:00:00 Temperatura 9.3 del 24-05-2022 20:00, Mayor que la Máxima 7.0 25-05-2022 00:00 9.3 -- 7.0 2022-05-25 00:21:00
2 2022-05-26 00:00:00 Temperatura 7.8 del 25-05-2022 18:00, Mayor que la Máxima 5.8 26-05-2022 00:00 7.8 -- 5.8 2022-05-26 00:21:00
2 2022-05-27 00:00:00 Temperatura 7.6 del 26-05-2022 16:00, Mayor que la Máxima 7.4 27-05-2022 00:00 7.6 -- 7.4 2022-05-27 00:36:00
2 2022-05-28 00:00:00 Temperatura 8.5 del 27-05-2022 16:00, Mayor que la Máxima 6.5 28-05-2022 00:00 8.5 -- 6.5 2022-05-28 00:09:00
2 2022-05-29 00:00:00 Temperatura 8.0 del 28-05-2022 19:00, Mayor que la Máxima 6.0 29-05-2022 00:00 8.0 -- 6.0 2022-05-29 00:21:00
2 2022-05-30 00:00:00 Temperatura 9.0 del 29-05-2022 16:00, Mayor que la Máxima 5.0 30-05-2022 00:00 9.0 -- 5.0 2022-05-30 00:21:00
2 2022-05-31 00:00:00 Temperatura 8.2 del 30-05-2022 18:00, Mayor que la Máxima 6.0 31-05-2022 00:00 8.2 -- 6.0 2022-05-31 00:09:00
2 2022-06-01 00:00:00 Temperatura 7.9 del 31-05-2022 18:00, Mayor que la Máxima 5.0 01-06-2022 00:00 7.9 -- 5.0 2022-06-01 00:09:00
2 2022-06-02 00:00:00 Temperatura 8.1 del 01-06-2022 17:00, Mayor que la Máxima 4.7 02-06-2022 00:00 8.1 -- 4.7 2022-06-02 00:09:00
2 2022-06-03 00:00:00 Temperatura 10.1 del 02-06-2022 19:00, Mayor que la Máxima 7.6 03-06-2022 00:00 10.1 -- 7.6 2022-06-03 00:09:00
2 2022-06-05 00:00:00 Temperatura 9.0 del 04-06-2022 17:00, Mayor que la Máxima 7.4 05-06-2022 00:00 9.0 -- 7.4 2022-06-05 00:09:00
2 2022-06-06 00:00:00 Temperatura 9.5 del 05-06-2022 17:00, Mayor que la Máxima 8.8 06-06-2022 00:00 9.5 -- 8.8 2022-06-06 00:09:00
2 2022-06-08 00:00:00 Temperatura 12.7 del 07-06-2022 19:00, Mayor que la Máxima 9.7 08-06-2022 00:00 12.7 -- 9.7 2022-06-08 00:09:00
2 2022-06-09 00:00:00 Temperatura 10.9 del 08-06-2022 18:00, Mayor que la Máxima 7.6 09-06-2022 00:00 10.9 -- 7.6 2022-06-09 00:09:00
2 2022-06-10 00:00:00 Temperatura 9.1 del 09-06-2022 17:00, Mayor que la Máxima 6.1 10-06-2022 00:00 9.1 -- 6.1 2022-06-10 00:09:00
2 2022-06-11 00:00:00 Temperatura 8.5 del 10-06-2022 16:00, Mayor que la Máxima 6.7 11-06-2022 00:00 8.5 -- 6.7 2022-06-11 00:09:00
2 2022-06-12 00:00:00 Temperatura 11.6 del 11-06-2022 18:00, Mayor que la Máxima 6.6 12-06-2022 00:00 11.6 -- 6.6 2022-06-12 00:09:00
2 2022-06-13 00:00:00 Temperatura 10.4 del 12-06-2022 16:00, Mayor que la Máxima 9.8 13-06-2022 00:00 10.4 -- 9.8 2022-06-13 05:36:00
2 2022-06-14 00:00:00 Temperatura 9.5 del 13-06-2022 17:00, Mayor que la Máxima 9.1 14-06-2022 00:00 9.5 -- 9.1 2022-06-14 00:09:00
2 2022-06-15 00:00:00 Temperatura 11.2 del 14-06-2022 20:00, Mayor que la Máxima 9.0 15-06-2022 00:00 11.2 -- 9.0 2022-06-15 00:09:00
2 2022-06-16 00:00:00 Temperatura 10.5 del 15-06-2022 16:00, Mayor que la Máxima 8.0 16-06-2022 00:00 10.5 -- 8.0 2022-06-16 00:09:00
2 2022-06-17 00:00:00 Temperatura 8.6 del 16-06-2022 18:00, Mayor que la Máxima 6.8 17-06-2022 00:00 8.6 -- 6.8 2022-06-17 00:09:00
2 2022-06-18 00:00:00 Temperatura 8.5 del 17-06-2022 17:00, Mayor que la Máxima 6.0 18-06-2022 00:00 8.5 -- 6.0 2022-06-18 00:09:00
2 2022-06-19 00:00:00 Temperatura 7.4 del 18-06-2022 22:00, Mayor que la Máxima 7.2 19-06-2022 00:00 7.4 -- 7.2 2022-06-19 00:09:00
2 2022-06-20 00:00:00 Temperatura 9.1 del 19-06-2022 17:00, Mayor que la Máxima 7.9 20-06-2022 00:00 9.1 -- 7.9 2022-06-20 00:09:00
2 2022-08-11 00:00:00 Temperatura 11.0 del 10-08-2022 17:00, Mayor que la Máxima 8.9 11-08-2022 00:00 11.0 -- 8.9 2022-08-11 00:10:00
2 2022-08-13 00:00:00 Temperatura 8.5 del 12-08-2022 18:00, Mayor que la Máxima 6.9 13-08-2022 00:00 8.5 -- 6.9 2022-08-13 00:09:00
2 2022-08-14 00:00:00 Temperatura 10.8 del 13-08-2022 14:00, Mayor que la Máxima 9.3 14-08-2022 00:00 10.8 -- 9.3 2022-08-14 00:09:00
2 2022-08-15 00:00:00 Temperatura 8.3 del 14-08-2022 19:00, Mayor que la Máxima 6.7 15-08-2022 00:00 8.3 -- 6.7 2022-08-15 00:10:00
2 2022-08-17 00:00:00 Temperatura 9.5 del 16-08-2022 17:00, Mayor que la Máxima 6.7 17-08-2022 00:00 9.5 -- 6.7 2022-08-17 00:09:00
2 2023-01-10 00:00:00 Temperatura 17.8 del 09-01-2023 13:00, Mayor que la Máxima 13.0 10-01-2023 00:00 17.8 -- 13.0 2023-01-10 00:09:00
2 2021-12-02 12:00:00 Temperatura 9.3 del 02-12-2021 09:00, Menor que la Mínima 11.3 02-12-2021 12:00 9.3 -- 11.3 2021-12-02 12:20:00
2 2021-12-03 12:00:00 Temperatura 10.6 del 03-12-2021 04:00, Menor que la Mínima 11.3 03-12-2021 12:00 10.6 -- 11.3 2021-12-03 12:20:00
2 2021-12-04 12:00:00 Temperatura 10.1 del 04-12-2021 07:00, Menor que la Mínima 10.6 04-12-2021 12:00 10.1 -- 10.6 2021-12-04 12:20:00
2 2021-12-05 12:00:00 Temperatura 11.2 del 05-12-2021 09:00, Menor que la Mínima 12.3 05-12-2021 12:00 11.2 -- 12.3 2021-12-05 12:20:00
2 2022-01-27 12:00:00 Temperatura 12.9 del 27-01-2022 10:00, Menor que la Mínima 19.4 27-01-2022 12:00 12.9 -- 19.4 2022-01-27 12:20:00
2 2022-01-29 12:00:00 Temperatura 12.9 del 29-01-2022 08:00, Menor que la Mínima 15.0 29-01-2022 12:00 12.9 -- 15.0 2022-01-29 12:20:00
2 2022-01-31 12:00:00 Temperatura 9.8 del 31-01-2022 09:00, Menor que la Mínima 13.7 31-01-2022 12:00 9.8 -- 13.7 2022-01-31 12:20:00
2 2022-02-01 12:00:00 Temperatura 13.5 del 01-02-2022 11:00, Menor que la Mínima 15.1 01-02-2022 12:00 13.5 -- 15.1 2022-02-01 12:20:00
2 2022-02-02 12:00:00 Temperatura 14.5 del 02-02-2022 09:00, Menor que la Mínima 15.5 02-02-2022 12:00 14.5 -- 15.5 2022-02-02 12:20:00
2 2022-02-03 12:00:00 Temperatura 14.4 del 03-02-2022 09:00, Menor que la Mínima 15.7 03-02-2022 12:00 14.4 -- 15.7 2022-02-03 12:20:00
2 2022-02-06 12:00:00 Temperatura 12.5 del 06-02-2022 11:00, Menor que la Mínima 13.0 06-02-2022 12:00 12.5 -- 13.0 2022-02-06 12:36:00
2 2022-02-09 12:00:00 Temperatura 12.5 del 09-02-2022 10:00, Menor que la Mínima 15.4 09-02-2022 12:00 12.5 -- 15.4 2022-02-09 12:36:00
2 2022-02-10 12:00:00 Temperatura 11.2 del 10-02-2022 08:00, Menor que la Mínima 12.9 10-02-2022 12:00 11.2 -- 12.9 2022-02-10 12:36:00
2 2022-02-11 12:00:00 Temperatura 10.9 del 11-02-2022 09:00, Menor que la Mínima 12.5 11-02-2022 12:00 10.9 -- 12.5 2022-02-11 12:36:00
2 2022-02-12 12:00:00 Temperatura 12.4 del 12-02-2022 09:00, Menor que la Mínima 13.5 12-02-2022 12:00 12.4 -- 13.5 2022-02-12 12:36:00
2 2022-02-13 12:00:00 Temperatura 11.9 del 13-02-2022 11:00, Menor que la Mínima 14.2 13-02-2022 12:00 11.9 -- 14.2 2022-02-13 12:36:00
2 2022-02-14 12:00:00 Temperatura 11.3 del 14-02-2022 09:00, Menor que la Mínima 13.2 14-02-2022 12:00 11.3 -- 13.2 2022-02-14 12:36:00
2 2022-02-15 12:00:00 Temperatura 9.0 del 15-02-2022 09:00, Menor que la Mínima 12.0 15-02-2022 12:00 9.0 -- 12.0 2022-02-15 12:36:00
2 2022-02-16 12:00:00 Temperatura 12.7 del 16-02-2022 11:00, Menor que la Mínima 13.4 16-02-2022 12:00 12.7 -- 13.4 2022-02-16 12:36:00
2 2022-02-17 12:00:00 Temperatura 11.8 del 17-02-2022 07:00, Menor que la Mínima 13.5 17-02-2022 12:00 11.8 -- 13.5 2022-02-17 12:36:00
2 2022-02-18 12:00:00 Temperatura 10.8 del 18-02-2022 09:00, Menor que la Mínima 13.0 18-02-2022 12:00 10.8 -- 13.0 2022-02-18 12:36:00
2 2022-02-19 12:00:00 Temperatura 15.3 del 19-02-2022 08:00, Menor que la Mínima 15.9 19-02-2022 12:00 15.3 -- 15.9 2022-02-19 12:36:00
2 2022-02-20 12:00:00 Temperatura 12.6 del 20-02-2022 08:00, Menor que la Mínima 14.1 20-02-2022 12:00 12.6 -- 14.1 2022-02-20 12:36:00
2 2022-02-21 12:00:00 Temperatura 15.2 del 21-02-2022 02:00, Menor que la Mínima 16.5 21-02-2022 12:00 15.2 -- 16.5 2022-02-21 12:36:00
2 2022-02-22 12:00:00 Temperatura 15.1 del 22-02-2022 11:00, Menor que la Mínima 19.2 22-02-2022 12:00 15.1 -- 19.2 2022-02-22 12:36:00
2 2022-02-23 12:00:00 Temperatura 12.1 del 23-02-2022 11:00, Menor que la Mínima 14.6 23-02-2022 12:00 12.1 -- 14.6 2022-02-23 12:36:00
2 2022-02-24 12:00:00 Temperatura 14.0 del 24-02-2022 09:00, Menor que la Mínima 15.3 24-02-2022 12:00 14.0 -- 15.3 2022-02-24 12:37:00
2 2022-02-25 12:00:00 Temperatura 14.0 del 25-02-2022 08:00, Menor que la Mínima 15.6 25-02-2022 12:00 14.0 -- 15.6 2022-02-25 12:37:00
2 2022-02-28 12:00:00 Temperatura 10.4 del 28-02-2022 09:00, Menor que la Mínima 13.1 28-02-2022 12:00 10.4 -- 13.1 2022-02-28 12:37:00
2 2022-03-02 12:00:00 Temperatura 13.8 del 02-03-2022 08:00, Menor que la Mínima 14.7 02-03-2022 12:00 13.8 -- 14.7 2022-03-02 12:37:00
2 2022-03-03 12:00:00 Temperatura 14.8 del 03-03-2022 07:00, Menor que la Mínima 16.7 03-03-2022 12:00 14.8 -- 16.7 2022-03-03 12:37:00
2 2022-03-04 12:00:00 Temperatura 8.9 del 04-03-2022 11:00, Menor que la Mínima 10.7 04-03-2022 12:00 8.9 -- 10.7 2022-03-04 12:38:00
2 2022-03-05 12:00:00 Temperatura 10.0 del 05-03-2022 11:00, Menor que la Mínima 11.1 05-03-2022 12:00 10.0 -- 11.1 2022-03-05 12:37:00
2 2022-03-06 12:00:00 Temperatura 12.4 del 06-03-2022 02:00, Menor que la Mínima 12.5 06-03-2022 12:00 12.4 -- 12.5 2022-03-06 12:36:00
2 2022-03-07 12:00:00 Temperatura 12.3 del 07-03-2022 11:00, Menor que la Mínima 12.7 07-03-2022 12:00 12.3 -- 12.7 2022-03-07 12:09:00
2 2022-03-09 12:00:00 Temperatura 8.2 del 09-03-2022 07:00, Menor que la Mínima 9.5 09-03-2022 12:00 8.2 -- 9.5 2022-03-09 12:10:00
2 2022-03-10 12:00:00 Temperatura 8.9 del 10-03-2022 07:00, Menor que la Mínima 10.6 10-03-2022 12:00 8.9 -- 10.6 2022-03-10 12:09:00
2 2022-03-11 12:00:00 Temperatura 11.6 del 11-03-2022 10:00, Menor que la Mínima 12.2 11-03-2022 12:00 11.6 -- 12.2 2022-03-11 12:11:00
2 2022-03-12 12:00:00 Temperatura 12.5 del 12-03-2022 05:00, Menor que la Mínima 13.0 12-03-2022 12:00 12.5 -- 13.0 2022-03-12 12:09:00
2 2022-03-14 12:00:00 Temperatura 10.5 del 14-03-2022 10:00, Menor que la Mínima 11.7 14-03-2022 12:00 10.5 -- 11.7 2022-03-14 12:10:00
2 2022-03-15 12:00:00 Temperatura 12.4 del 15-03-2022 11:00, Menor que la Mínima 12.6 15-03-2022 12:00 12.4 -- 12.6 2022-03-15 12:09:00
2 2022-03-16 12:00:00 Temperatura 11.6 del 16-03-2022 07:00, Menor que la Mínima 13.0 16-03-2022 12:00 11.6 -- 13.0 2022-03-16 12:10:00
2 2022-03-17 12:00:00 Temperatura 10.1 del 17-03-2022 09:00, Menor que la Mínima 11.2 17-03-2022 12:00 10.1 -- 11.2 2022-03-17 12:09:00
2 2022-03-18 12:00:00 Temperatura 9.4 del 18-03-2022 10:00, Menor que la Mínima 10.3 18-03-2022 12:00 9.4 -- 10.3 2022-03-18 13:36:00
2 2022-03-19 12:00:00 Temperatura 6.6 del 19-03-2022 09:00, Menor que la Mínima 7.2 19-03-2022 12:00 6.6 -- 7.2 2022-03-19 12:09:00
2 2022-03-20 12:00:00 Temperatura 10.8 del 20-03-2022 05:00, Menor que la Mínima 11.3 20-03-2022 12:00 10.8 -- 11.3 2022-03-20 12:09:00
2 2022-03-21 12:00:00 Temperatura 12.2 del 21-03-2022 02:00, Menor que la Mínima 13.3 21-03-2022 12:00 12.2 -- 13.3 2022-03-21 12:09:00
2 2022-03-22 12:00:00 Temperatura 10.1 del 22-03-2022 08:00, Menor que la Mínima 10.3 22-03-2022 12:00 10.1 -- 10.3 2022-03-22 12:36:00
2 2022-03-23 12:00:00 Temperatura 8.4 del 23-03-2022 10:00, Menor que la Mínima 8.6 23-03-2022 12:00 8.4 -- 8.6 2022-03-23 12:36:00
2 2022-03-26 12:00:00 Temperatura 9.2 del 26-03-2022 09:00, Menor que la Mínima 10.0 26-03-2022 12:00 9.2 -- 10.0 2022-03-26 12:36:00
2 2022-03-27 12:00:00 Temperatura 9.1 del 27-03-2022 08:00, Menor que la Mínima 9.9 27-03-2022 12:00 9.1 -- 9.9 2022-03-27 12:36:00
2 2022-03-28 12:00:00 Temperatura 10.4 del 28-03-2022 03:00, Menor que la Mínima 11.5 28-03-2022 12:00 10.4 -- 11.5 2022-03-28 12:36:00
2 2022-03-30 12:00:00 Temperatura 5.4 del 30-03-2022 08:00, Menor que la Mínima 8.5 30-03-2022 12:00 5.4 -- 8.5 2022-03-30 12:21:00
2 2022-03-31 12:00:00 Temperatura 7.6 del 31-03-2022 11:00, Menor que la Mínima 8.5 31-03-2022 12:00 7.6 -- 8.5 2022-03-31 12:09:00
2 2022-04-01 12:00:00 Temperatura 9.8 del 01-04-2022 09:00, Menor que la Mínima 11.1 01-04-2022 12:00 9.8 -- 11.1 2022-04-01 12:51:00
2 2022-04-02 12:00:00 Temperatura 11.2 del 02-04-2022 03:00, Menor que la Mínima 13.0 02-04-2022 12:00 11.2 -- 13.0 2022-04-02 12:21:00
2 2022-04-03 12:00:00 Temperatura 5.5 del 03-04-2022 09:00, Menor que la Mínima 6.0 03-04-2022 12:00 5.5 -- 6.0 2022-04-03 12:21:00
2 2022-04-04 12:00:00 Temperatura 8.7 del 04-04-2022 08:00, Menor que la Mínima 9.0 04-04-2022 12:00 8.7 -- 9.0 2022-04-04 12:22:00
2 2022-04-13 12:00:00 Temperatura 7.9 del 13-04-2022 08:00, Menor que la Mínima 8.9 13-04-2022 12:00 7.9 -- 8.9 2022-04-13 12:09:00
2 2022-04-14 12:00:00 Temperatura 9.6 del 14-04-2022 11:00, Menor que la Mínima 9.7 14-04-2022 12:00 9.6 -- 9.7 2022-04-14 12:09:00
2 2022-04-15 12:00:00 Temperatura 8.6 del 15-04-2022 03:00, Menor que la Mínima 10.1 15-04-2022 12:00 8.6 -- 10.1 2022-04-15 12:10:00
2 2022-04-16 12:00:00 Temperatura 9.7 del 16-04-2022 05:00, Menor que la Mínima 10.2 16-04-2022 12:00 9.7 -- 10.2 2022-04-16 12:09:00
2 2022-04-19 12:00:00 Temperatura 9.9 del 19-04-2022 07:00, Menor que la Mínima 11.1 19-04-2022 12:00 9.9 -- 11.1 2022-04-19 12:09:00
2 2022-04-24 12:00:00 Temperatura 10.3 del 24-04-2022 10:00, Menor que la Mínima 11.4 24-04-2022 12:00 10.3 -- 11.4 2022-04-24 12:37:00
2 2022-04-25 12:00:00 Temperatura 6.5 del 25-04-2022 02:00, Menor que la Mínima 8.1 25-04-2022 12:00 6.5 -- 8.1 2022-04-25 12:10:00
2 2022-04-27 12:00:00 Temperatura 5.4 del 27-04-2022 10:00, Menor que la Mínima 6.2 27-04-2022 12:00 5.4 -- 6.2 2022-04-27 12:10:00
2 2022-04-29 12:00:00 Temperatura 2.2 del 29-04-2022 08:00, Menor que la Mínima 5.7 29-04-2022 12:00 2.2 -- 5.7 2022-04-29 12:10:00
2 2022-04-30 12:00:00 Temperatura 1.5 del 30-04-2022 11:00, Menor que la Mínima 2.6 30-04-2022 12:00 1.5 -- 2.6 2022-04-30 12:10:00
2 2022-05-01 12:00:00 Temperatura 9.2 del 01-05-2022 08:00, Menor que la Mínima 9.4 01-05-2022 12:00 9.2 -- 9.4 2022-05-01 12:09:00
2 2022-05-03 12:00:00 Temperatura 9.3 del 03-05-2022 09:00, Menor que la Mínima 10.3 03-05-2022 12:00 9.3 -- 10.3 2022-05-03 12:09:00
2 2022-05-07 12:00:00 Temperatura 11.2 del 07-05-2022 02:00, Menor que la Mínima 11.4 07-05-2022 12:00 11.2 -- 11.4 2022-05-07 12:09:00
2 2022-05-12 12:00:00 Temperatura 11.5 del 12-05-2022 07:00, Menor que la Mínima 11.6 12-05-2022 12:00 11.5 -- 11.6 2022-05-12 12:09:00
2 2022-05-13 12:00:00 Temperatura 4.9 del 13-05-2022 08:00, Menor que la Mínima 5.5 13-05-2022 12:00 4.9 -- 5.5 2022-05-13 12:09:00
2 2022-05-14 12:00:00 Temperatura 7.2 del 14-05-2022 07:00, Menor que la Mínima 7.8 14-05-2022 12:00 7.2 -- 7.8 2022-05-14 12:09:00
2 2022-05-15 12:00:00 Temperatura 3.4 del 15-05-2022 10:00, Menor que la Mínima 4.3 15-05-2022 12:00 3.4 -- 4.3 2022-05-15 12:09:00
2 2022-05-16 12:00:00 Temperatura 5.3 del 16-05-2022 09:00, Menor que la Mínima 5.4 16-05-2022 12:00 5.3 -- 5.4 2022-05-16 12:09:00
2 2022-05-18 12:00:00 Temperatura 4.4 del 18-05-2022 11:00, Menor que la Mínima 5.9 18-05-2022 12:00 4.4 -- 5.9 2022-05-18 12:09:00
2 2022-05-19 12:00:00 Temperatura 8.1 del 19-05-2022 08:00, Menor que la Mínima 10.9 19-05-2022 12:00 8.1 -- 10.9 2022-05-19 12:09:00
2 2022-05-23 12:00:00 Temperatura 5.8 del 23-05-2022 08:00, Menor que la Mínima 6.3 23-05-2022 12:00 5.8 -- 6.3 2022-05-23 12:36:00
2 2022-05-24 12:00:00 Temperatura 5.7 del 24-05-2022 09:00, Menor que la Mínima 5.8 24-05-2022 12:00 5.7 -- 5.8 2022-05-24 12:36:00
2 2022-05-26 12:00:00 Temperatura 4.1 del 26-05-2022 10:00, Menor que la Mínima 4.3 26-05-2022 12:00 4.1 -- 4.3 2022-05-26 12:21:00
2 2022-05-30 12:00:00 Temperatura -1.2 del 30-05-2022 11:00, Menor que la Mínima 1.2 30-05-2022 12:00 -1.2 -- 1.2 2022-05-30 12:21:00
2 2022-05-31 12:00:00 Temperatura 4.1 del 31-05-2022 11:00, Menor que la Mínima 4.3 31-05-2022 12:00 4.1 -- 4.3 2022-05-31 12:09:00
2 2022-06-01 12:00:00 Temperatura 0.5 del 01-06-2022 05:00, Menor que la Mínima 1.2 01-06-2022 12:00 0.5 -- 1.2 2022-06-01 12:09:00
2 2022-06-02 12:00:00 Temperatura 1.5 del 02-06-2022 06:00, Menor que la Mínima 4.1 02-06-2022 12:00 1.5 -- 4.1 2022-06-02 12:09:00
2 2022-06-03 12:00:00 Temperatura 7.0 del 03-06-2022 03:00, Menor que la Mínima 7.5 03-06-2022 12:00 7.0 -- 7.5 2022-06-03 12:09:00
2 2022-06-05 12:00:00 Temperatura 1.9 del 05-06-2022 08:00, Menor que la Mínima 3.1 05-06-2022 12:00 1.9 -- 3.1 2022-06-05 12:09:00
2 2022-06-06 12:00:00 Temperatura 7.7 del 06-06-2022 05:00, Menor que la Mínima 9.1 06-06-2022 12:00 7.7 -- 9.1 2022-06-06 12:09:00
2 2022-06-07 12:00:00 Temperatura 7.6 del 07-06-2022 09:00, Menor que la Mínima 7.8 07-06-2022 12:00 7.6 -- 7.8 2022-06-07 12:09:00
2 2022-06-08 12:00:00 Temperatura 8.9 del 08-06-2022 02:00, Menor que la Mínima 9.9 08-06-2022 12:00 8.9 -- 9.9 2022-06-08 12:09:00
2 2022-06-09 12:00:00 Temperatura 2.7 del 09-06-2022 11:00, Menor que la Mínima 2.8 09-06-2022 12:00 2.7 -- 2.8 2022-06-09 12:09:00
2 2022-06-11 12:00:00 Temperatura 1.0 del 11-06-2022 11:00, Menor que la Mínima 3.8 11-06-2022 12:00 1.0 -- 3.8 2022-06-11 12:09:00
2 2022-06-12 12:00:00 Temperatura 4.3 del 12-06-2022 05:00, Menor que la Mínima 6.1 12-06-2022 12:00 4.3 -- 6.1 2022-06-12 12:09:00
2 2022-06-17 12:00:00 Temperatura 3.2 del 17-06-2022 06:00, Menor que la Mínima 4.2 17-06-2022 12:00 3.2 -- 4.2 2022-06-17 12:09:00
2 2022-06-18 12:00:00 Temperatura 4.9 del 18-06-2022 03:00, Menor que la Mínima 5.8 18-06-2022 12:00 4.9 -- 5.8 2022-06-18 12:09:00
2 2022-08-11 12:00:00 Temperatura 8.1 del 11-08-2022 09:00, Menor que la Mínima 8.5 11-08-2022 12:00 8.1 -- 8.5 2022-08-11 12:09:00
2 2022-08-13 12:00:00 Temperatura 6.7 del 13-08-2022 02:00, Menor que la Mínima 6.9 13-08-2022 12:00 6.7 -- 6.9 2022-08-13 12:09:00
2 2022-08-14 12:00:00 Temperatura 4.8 del 14-08-2022 11:00, Menor que la Mínima 5.3 14-08-2022 12:00 4.8 -- 5.3 2022-08-14 12:10:00
2 2022-08-15 12:00:00 Temperatura 3.5 del 15-08-2022 06:00, Menor que la Mínima 4.5 15-08-2022 12:00 3.5 -- 4.5 2022-08-15 12:09:00
2 2022-08-17 12:00:00 Temperatura 3.0 del 17-08-2022 06:00, Menor que la Mínima 3.1 17-08-2022 12:00 3.0 -- 3.1 2022-08-17 12:10:00
Errores del Nivel 237
Informe generado el 05-03-2024 11:38
Requerimiento: RE6001